Cape Canaveral, Florida
Current Conditions -  °F | °C
As of 9:58 PM on Sunday 21 Dec 2014 (Local Time) from KXMR Reporting Station
Scattered Clouds Scattered Clouds  
Wind Chill: 69°   Ceiling: Unl
Heat Index: 69°   Visibility: 10mi
Dew Point: 66°   Wind: 5mph
Humidity: 89%   Direction: 140°SE
Pressure: 30.04"   Gusts: NA
Location:  28.38°N, 80.6°W
Report Text: KXMR 220258Z AUTO 14004KT 10SM SCT100 21/19 A3004 RMK AO2 SLP176 T02060187 55000
Loading
Personal Weather Stations






























Interactive Weather Map New forecast layout! Learn more

10-Day Weather Forecast

Advertisements
Track Severe Weather on mobile